Time,TemperatureF,DewpointF,PressureIn,WindDirection,WindDirectionDegrees,WindSpeedMPH,WindSpeedGustMPH,Humidity,HourlyPrecipIn,Conditions,Clouds,dailyrainin,SoftwareType,DateUTC
2013-03-02 00:00:00,30.0,17.8,30.25,West,261,3.1,4.0,60,0.00,,,0.00,VWS V13.01,2013-03-02 06:00:00,
2013-03-02 00:05:00,30.0,17.8,30.25,WSW,257,3.6,4.0,60,0.00,,,0.00,VWS V13.01,2013-03-02 06:05:00,
2013-03-02 00:10:00,29.8,17.6,30.25,West,263,4.0,4.0,60,0.00,,,0.00,VWS V13.01,2013-03-02 06:10:00,
2013-03-02 00:15:00,29.8,18.0,30.25,West,259,4.0,4.0,61,0.00,,,0.00,VWS V13.01,2013-03-02 06:15:00,
2013-03-02 00:20:00,29.8,18.0,30.25,WSW,257,4.0,5.4,61,0.00,,,0.00,VWS V13.01,2013-03-02 06:20:00,
2013-03-02 00:25:00,29.8,18.0,30.25,WSW,245,4.0,4.5,61,0.00,,,0.00,VWS V13.01,2013-03-02 06:25:00,
2013-03-02 00:30:00,29.8,18.0,30.25,NW,316,3.1,5.4,61,0.00,,,0.00,VWS V13.01,2013-03-02 06:30:00,
2013-03-02 00:35:00,29.8,18.0,30.25,WSW,248,5.8,5.8,61,0.00,,,0.00,VWS V13.01,2013-03-02 06:35:00,
2013-03-02 00:40:00,29.8,18.0,30.25,West,275,2.7,4.0,61,0.00,,,0.00,VWS V13.01,2013-03-02 06:40:00,
2013-03-02 00:45:00,29.8,18.4,30.25,West,266,4.0,4.0,62,0.00,,,0.00,VWS V13.01,2013-03-02 06:45:00,
2013-03-02 00:50:00,29.6,18.2,30.25,West,276,4.9,5.4,62,0.00,,,0.00,VWS V13.01,2013-03-02 06:50:00,
2013-03-02 00:55:00,29.6,18.2,30.25,West,279,4.0,5.8,62,0.00,,,0.00,VWS V13.01,2013-03-02 06:55:00,
2013-03-02 01:00:00,29.5,18.1,30.25,WSW,247,4.0,5.8,62,0.00,,,0.00,VWS V13.01,2013-03-02 07:00:00,
2013-03-02 01:05:00,29.5,18.4,30.25,West,265,4.9,5.8,63,0.00,,,0.00,VWS V13.01,2013-03-02 07:05:00,
2013-03-02 01:10:00,29.3,18.3,30.25,WSW,246,3.1,3.6,63,0.00,,,0.00,VWS V13.01,2013-03-02 07:10:00,
2013-03-02 01:15:00,29.3,18.3,30.25,West,267,4.0,5.4,63,0.00,,,0.00,VWS V13.01,2013-03-02 07:15:00,
2013-03-02 01:20:00,29.1,18.1,30.25,WSW,254,6.3,6.3,63,0.00,,,0.00,VWS V13.01,2013-03-02 07:20:00,
2013-03-02 01:25:00,29.3,18.3,30.25,West,262,4.9,6.3,63,0.00,,,0.00,VWS V13.01,2013-03-02 07:25:00,
2013-03-02 01:30:00,29.3,18.6,30.25,WSW,257,3.6,4.9,64,0.00,,,0.00,VWS V13.01,2013-03-02 07:30:00,
2013-03-02 01:35:00,29.3,18.6,30.25,West,269,4.0,4.9,64,0.00,,,0.00,VWS V13.01,2013-03-02 07:35:00,
2013-03-02 01:40:00,29.3,18.6,30.25,WSW,243,5.8,5.8,64,0.00,,,0.00,VWS V13.01,2013-03-02 07:40:00,
2013-03-02 01:45:00,29.3,18.6,30.25,West,259,3.6,3.6,64,0.00,,,0.00,VWS V13.01,2013-03-02 07:45:00,
2013-03-02 01:50:00,29.1,18.5,30.25,WSW,251,4.0,4.0,64,0.00,,,0.00,VWS V13.01,2013-03-02 07:50:00,
2013-03-02 01:55:00,29.1,18.5,30.25,West,259,5.4,6.3,64,0.00,,,0.00,VWS V13.01,2013-03-02 07:55:00,
2013-03-02 02:00:00,29.1,18.5,30.25,WSW,247,4.5,6.3,64,0.00,,,0.00,VWS V13.01,2013-03-02 08:00:00,
2013-03-02 02:05:00,29.1,18.8,30.25,West,259,5.4,5.4,65,0.00,,,0.00,VWS V13.01,2013-03-02 08:05:00,
2013-03-02 02:10:00,29.1,18.8,30.25,West,259,5.8,8.7,65,0.00,,,0.00,VWS V13.01,2013-03-02 08:10:00,
2013-03-02 02:15:00,29.1,18.8,30.25,WSW,251,5.8,5.8,65,0.00,,,0.00,VWS V13.01,2013-03-02 08:15:00,
2013-03-02 02:20:00,29.1,18.8,30.25,West,265,4.9,4.9,65,0.00,,,0.00,VWS V13.01,2013-03-02 08:20:00,
2013-03-02 02:25:00,29.1,18.8,30.25,WSW,254,7.6,7.6,65,0.00,,,0.00,VWS V13.01,2013-03-02 08:25:00,
2013-03-02 02:30:00,29.1,18.8,30.22,West,275,5.4,5.4,65,0.00,,,0.00,VWS V13.01,2013-03-02 08:30:00,
2013-03-02 02:35:00,29.1,18.8,30.22,West,262,3.6,4.0,65,0.00,,,0.00,VWS V13.01,2013-03-02 08:35:00,
2013-03-02 02:40:00,29.1,18.8,30.22,West,261,3.6,4.0,65,0.00,,,0.00,VWS V13.01,2013-03-02 08:40:00,
2013-03-02 02:45:00,29.1,18.5,30.22,WSW,254,3.6,3.6,64,0.00,,,0.00,VWS V13.01,2013-03-02 08:45:00,
2013-03-02 02:50:00,29.1,18.8,30.22,WSW,250,4.0,4.0,65,0.00,,,0.00,VWS V13.01,2013-03-02 08:50:00,
2013-03-02 02:55:00,29.1,18.8,30.22,West,269,3.6,3.6,65,0.00,,,0.00,VWS V13.01,2013-03-02 08:55:00,
2013-03-02 03:00:00,29.1,18.8,30.22,WSW,256,2.7,3.1,65,0.00,,,0.00,VWS V13.01,2013-03-02 09:00:00,
2013-03-02 03:05:00,29.3,19.0,30.22,West,264,3.1,3.1,65,0.00,,,0.00,VWS V13.01,2013-03-02 09:05:00,
2013-03-02 03:10:00,29.3,18.6,30.22,WSW,246,4.0,4.0,64,0.00,,,0.00,VWS V13.01,2013-03-02 09:10:00,
2013-03-02 03:15:00,29.5,19.2,30.22,West,259,4.0,4.9,65,0.00,,,0.00,VWS V13.01,2013-03-02 09:15:00,
2013-03-02 03:20:00,29.6,19.3,30.22,WSW,245,2.7,2.7,65,0.00,,,0.00,VWS V13.01,2013-03-02 09:20:00,
2013-03-02 03:25:00,29.6,19.3,30.22,WSW,245,4.0,5.4,65,0.00,,,0.00,VWS V13.01,2013-03-02 09:25:00,
2013-03-02 03:30:00,29.6,19.0,30.22,West,259,4.0,6.3,64,0.00,,,0.00,VWS V13.01,2013-03-02 09:30:00,
2013-03-02 03:35:00,29.6,19.0,30.22,West,265,5.4,5.4,64,0.00,,,0.00,VWS V13.01,2013-03-02 09:35:00,
2013-03-02 03:39:00,29.6,19.0,30.22,West,262,5.4,8.1,64,0.00,,,0.00,VWS V13.01,2013-03-02 09:39:00,
2013-03-02 03:44:00,29.6,19.0,30.22,WSW,246,3.1,4.0,64,0.00,,,0.00,VWS V13.01,2013-03-02 09:44:00,
2013-03-02 03:49:00,29.6,19.0,30.22,WSW,244,6.3,6.3,64,0.00,,,0.00,VWS V13.01,2013-03-02 09:49:00,
2013-03-02 03:54:00,29.8,19.5,30.22,West,259,5.8,5.8,65,0.00,,,0.00,VWS V13.01,2013-03-02 09:54:00,
2013-03-02 03:59:00,29.8,19.1,30.22,West,264,3.6,6.3,64,0.00,,,0.00,VWS V13.01,2013-03-02 09:59:00,
2013-03-02 04:04:00,29.8,19.1,30.22,West,263,6.3,6.7,64,0.00,,,0.00,VWS V13.01,2013-03-02 10:04:00,
2013-03-02 04:10:00,30.0,18.6,30.22,WNW,288,5.8,7.6,62,0.00,,,0.00,VWS V13.01,2013-03-02 10:10:00,
2013-03-02 04:15:00,30.2,19.5,30.22,West,274,3.6,4.0,64,0.00,,,0.00,VWS V13.01,2013-03-02 10:15:00,
2013-03-02 04:20:00,30.0,19.3,30.22,NW,321,3.6,3.6,64,0.00,,,0.00,VWS V13.01,2013-03-02 10:20:00,
2013-03-02 04:25:00,30.0,19.3,30.22,NW,309,2.7,2.7,64,0.00,,,0.00,VWS V13.01,2013-03-02 10:25:00,
2013-03-02 04:30:00,30.2,19.1,30.22,NW,304,3.6,3.6,63,0.00,,,0.00,VWS V13.01,2013-03-02 10:30:00,
2013-03-02 04:35:00,30.2,19.1,30.22,NW,305,3.6,3.6,63,0.00,,,0.00,VWS V13.01,2013-03-02 10:35:00,
2013-03-02 04:40:00,30.2,19.1,30.22,WNW,284,3.1,3.6,63,0.00,,,0.00,VWS V13.01,2013-03-02 10:40:00,
2013-03-02 04:45:00,30.4,19.3,30.22,NW,305,2.2,2.2,63,0.00,,,0.00,VWS V13.01,2013-03-02 10:45:00,
2013-03-02 04:50:00,30.4,18.9,30.22,NNW,337,5.4,5.4,62,0.00,,,0.00,VWS V13.01,2013-03-02 10:50:00,
2013-03-02 04:55:00,30.5,19.1,30.22,NW,304,3.1,3.1,62,0.00,,,0.00,VWS V13.01,2013-03-02 10:55:00,
2013-03-02 05:00:00,30.5,19.1,30.22,NNW,329,2.2,3.6,62,0.00,,,0.00,VWS V13.01,2013-03-02 11:00:00,
2013-03-02 05:05:00,30.5,19.1,30.22,NW,316,0.0,2.2,62,0.00,,,0.00,VWS V13.01,2013-03-02 11:05:00,
2013-03-02 05:10:00,30.5,18.7,30.22,NW,308,5.8,5.8,61,0.00,,,0.00,VWS V13.01,2013-03-02 11:10:00,
2013-03-02 05:15:00,30.5,18.7,30.22,NW,321,4.0,4.0,61,0.00,,,0.00,VWS V13.01,2013-03-02 11:15:00,
2013-03-02 05:20:00,30.5,18.7,30.22,NNW,341,3.1,3.6,61,0.00,,,0.00,VWS V13.01,2013-03-02 11:20:00,
2013-03-02 05:25:00,30.5,18.3,30.22,NW,310,5.8,8.1,60,0.00,,,0.00,VWS V13.01,2013-03-02 11:25:00,
2013-03-02 05:30:00,30.7,18.5,30.25,NW,316,3.1,3.1,60,0.00,,,0.00,VWS V13.01,2013-03-02 11:30:00,
2013-03-02 05:35:00,30.7,18.5,30.25,WNW,293,4.0,4.0,60,0.00,,,0.00,VWS V13.01,2013-03-02 11:35:00,
2013-03-02 05:40:00,30.7,18.5,30.25,WNW,297,6.3,6.3,60,0.00,,,0.00,VWS V13.01,2013-03-02 11:40:00,
2013-03-02 05:45:00,30.7,18.5,30.25,WNW,300,4.5,6.3,60,0.00,,,0.00,VWS V13.01,2013-03-02 11:45:00,
2013-03-02 05:50:00,30.7,18.5,30.25,NW,305,3.6,3.6,60,0.00,,,0.00,VWS V13.01,2013-03-02 11:50:00,
2013-03-02 05:55:00,30.5,18.3,30.25,NW,305,3.6,3.6,60,0.00,,,0.00,VWS V13.01,2013-03-02 11:55:00,
2013-03-02 06:00:00,30.7,18.5,30.25,NW,306,3.6,3.6,60,0.00,,,0.00,VWS V13.01,2013-03-02 12:00:00,
2013-03-02 06:05:00,30.7,18.5,30.25,West,265,2.7,2.7,60,0.00,,,0.00,VWS V13.01,2013-03-02 12:05:00,
2013-03-02 06:10:00,30.5,18.3,30.25,NW,318,6.3,6.3,60,0.00,,,0.00,VWS V13.01,2013-03-02 12:10:00,
2013-03-02 06:15:00,30.7,18.5,30.25,NNW,334,3.6,6.3,60,0.00,,,0.00,VWS V13.01,2013-03-02 12:15:00,
2013-03-02 06:20:00,30.7,18.5,30.25,NW,318,4.9,6.3,60,0.00,,,0.00,VWS V13.01,2013-03-02 12:20:00,
2013-03-02 06:25:00,30.5,18.3,30.25,WNW,302,5.8,8.1,60,0.00,,,0.00,VWS V13.01,2013-03-02 12:25:00,
2013-03-02 06:30:00,30.5,18.7,30.25,West,264,3.6,3.6,61,0.00,,,0.00,VWS V13.01,2013-03-02 12:30:00,
2013-03-02 06:35:00,30.5,18.3,30.25,NW,319,5.8,6.3,60,0.00,,,0.00,VWS V13.01,2013-03-02 12:35:00,
2013-03-02 06:40:00,30.5,18.3,30.25,WNW,290,6.3,6.3,60,0.00,,,0.00,VWS V13.01,2013-03-02 12:40:00,
2013-03-02 06:45:00,30.5,18.3,30.25,NW,305,5.4,6.3,60,0.00,,,0.00,VWS V13.01,2013-03-02 12:45:00,
2013-03-02 06:49:00,30.5,17.9,30.25,WNW,301,6.3,6.3,59,0.00,,,0.00,VWS V13.01,2013-03-02 12:49:00,
2013-03-02 06:54:00,30.5,17.9,30.25,NNW,337,6.3,9.6,59,0.00,,,0.00,VWS V13.01,2013-03-02 12:54:00,
2013-03-02 06:59:00,30.5,17.5,30.25,NW,320,6.3,8.7,58,0.00,,,0.00,VWS V13.01,2013-03-02 12:59:00,
2013-03-02 07:04:00,30.5,17.5,30.25,WNW,302,8.7,8.7,58,0.00,,,0.00,VWS V13.01,2013-03-02 13:04:00,
2013-03-02 07:09:00,30.5,17.1,30.25,WNW,300,10.1,11.0,57,0.00,,,0.00,VWS V13.01,2013-03-02 13:09:00,
2013-03-02 07:14:00,30.5,17.1,30.28,NW,318,8.3,10.5,57,0.00,,,0.00,VWS V13.01,2013-03-02 13:14:00,
2013-03-02 07:19:00,30.4,16.6,30.28,WNW,301,8.1,15.4,56,0.00,,,0.00,VWS V13.01,2013-03-02 13:19:00,
2013-03-02 07:24:00,30.5,16.3,30.28,WNW,299,7.6,10.5,55,0.00,,,0.00,VWS V13.01,2013-03-02 13:24:00,
2013-03-02 07:29:00,30.5,16.3,30.28,WSW,254,8.3,10.1,55,0.00,,,0.00,VWS V13.01,2013-03-02 13:29:00,
2013-03-02 07:34:00,30.5,16.7,30.28,NW,313,4.0,7.6,56,0.00,,,0.00,VWS V13.01,2013-03-02 13:34:00,
2013-03-02 07:39:00,30.5,16.7,30.28,NNW,328,4.9,6.3,56,0.00,,,0.00,VWS V13.01,2013-03-02 13:39:00,
2013-03-02 07:44:00,30.5,16.3,30.28,NW,311,8.1,8.3,55,0.00,,,0.00,VWS V13.01,2013-03-02 13:44:00,
2013-03-02 07:49:00,30.7,16.5,30.28,NNW,328,4.0,5.8,55,0.00,,,0.00,VWS V13.01,2013-03-02 13:49:00,
2013-03-02 07:54:00,30.7,16.9,30.28,NNW,347,5.4,6.3,56,0.00,,,0.00,VWS V13.01,2013-03-02 13:54:00,
2013-03-02 07:59:00,30.9,17.1,30.28,NW,312,5.4,5.8,56,0.00,,,0.00,VWS V13.01,2013-03-02 13:59:00,
2013-03-02 08:04:00,30.9,16.6,30.28,NNW,335,5.8,6.7,55,0.00,,,0.00,VWS V13.01,2013-03-02 14:04:00,
2013-03-02 08:09:00,30.7,16.5,30.28,NW,312,5.8,5.8,55,0.00,,,0.00,VWS V13.01,2013-03-02 14:09:00,
2013-03-02 08:14:00,30.9,16.6,30.28,NW,326,4.9,5.4,55,0.00,,,0.00,VWS V13.01,2013-03-02 14:14:00,
2013-03-02 08:19:00,30.9,16.6,30.28,North,354,5.4,7.6,55,0.00,,,0.00,VWS V13.01,2013-03-02 14:19:00,
2013-03-02 08:24:00,30.7,16.5,30.28,NW,322,8.1,8.3,55,0.00,,,0.00,VWS V13.01,2013-03-02 14:24:00,
2013-03-02 08:29:00,30.7,16.1,30.28,NW,324,10.1,12.3,54,0.00,,,0.00,VWS V13.01,2013-03-02 14:29:00,
2013-03-02 08:34:00,30.5,15.9,30.28,NW,305,8.3,8.7,54,0.00,,,0.00,VWS V13.01,2013-03-02 14:34:00,
2013-03-02 08:39:00,30.7,16.1,30.28,WNW,292,6.3,8.1,54,0.00,,,0.00,VWS V13.01,2013-03-02 14:39:00,
2013-03-02 08:44:00,30.7,16.1,30.28,WNW,291,8.3,8.3,54,0.00,,,0.00,VWS V13.01,2013-03-02 14:44:00,
2013-03-02 08:49:00,30.7,16.5,30.28,West,265,5.8,10.5,55,0.00,,,0.00,VWS V13.01,2013-03-02 14:49:00,
2013-03-02 08:54:00,30.7,16.5,30.28,NW,320,5.8,9.6,55,0.00,,,0.00,VWS V13.01,2013-03-02 14:54:00,
2013-03-02 08:59:00,30.7,16.5,30.31,NNW,330,5.8,10.5,55,0.00,,,0.00,VWS V13.01,2013-03-02 14:59:00,
2013-03-02 09:04:00,30.7,16.5,30.31,West,260,8.1,13.2,55,0.00,,,0.00,VWS V13.01,2013-03-02 15:04:00,
2013-03-02 09:09:00,30.9,16.6,30.31,West,270,4.9,8.3,55,0.00,,,0.00,VWS V13.01,2013-03-02 15:09:00,
2013-03-02 09:14:00,30.7,16.5,30.31,NW,323,6.3,8.3,55,0.00,,,0.00,VWS V13.01,2013-03-02 15:14:00,
2013-03-02 09:19:00,30.7,16.9,30.31,North,350,4.0,6.3,56,0.00,,,0.00,VWS V13.01,2013-03-02 15:19:00,
2013-03-02 09:24:00,31.3,17.4,30.31,WNW,295,6.3,6.3,56,0.00,,,0.00,VWS V13.01,2013-03-02 15:24:00,
2013-03-02 09:29:00,31.6,17.7,30.31,NW,315,6.3,6.3,56,0.00,,,0.00,VWS V13.01,2013-03-02 15:29:00,
2013-03-02 09:34:00,31.3,17.0,30.31,WNW,302,7.6,7.6,55,0.00,,,0.00,VWS V13.01,2013-03-02 15:34:00,
2013-03-02 09:39:00,31.3,17.0,30.31,NW,325,4.0,6.3,55,0.00,,,0.00,VWS V13.01,2013-03-02 15:39:00,
2013-03-02 09:44:00,31.3,17.4,30.31,West,277,4.9,6.3,56,0.00,,,0.00,VWS V13.01,2013-03-02 15:44:00,
2013-03-02 09:49:00,31.3,17.4,30.31,West,267,5.4,5.8,56,0.00,,,0.00,VWS V13.01,2013-03-02 15:49:00,
2013-03-02 09:54:00,31.3,17.4,30.31,West,273,8.1,11.0,56,0.00,,,0.00,VWS V13.01,2013-03-02 15:54:00,
2013-03-02 09:59:00,31.3,17.4,30.31,West,267,5.4,8.1,56,0.00,,,0.00,VWS V13.01,2013-03-02 15:59:00,
2013-03-02 10:04:00,31.3,17.4,30.31,West,273,3.6,5.8,56,0.00,,,0.00,VWS V13.01,2013-03-02 16:04:00,
2013-03-02 10:09:00,31.4,17.1,30.31,WNW,289,3.1,7.6,55,0.00,,,0.00,VWS V13.01,2013-03-02 16:09:00,
2013-03-02 10:14:00,31.8,17.5,30.31,West,271,3.1,8.3,55,0.00,,,0.00,VWS V13.01,2013-03-02 16:14:00,
2013-03-02 10:19:00,31.3,16.6,30.31,WNW,301,5.8,6.7,54,0.00,,,0.00,VWS V13.01,2013-03-02 16:19:00,
2013-03-02 10:24:00,31.6,16.9,30.31,WSW,248,5.8,8.7,54,0.00,,,0.00,VWS V13.01,2013-03-02 16:24:00,
2013-03-02 10:29:00,32.0,17.7,30.31,West,275,4.9,4.9,55,0.00,,,0.00,VWS V13.01,2013-03-02 16:29:00,
2013-03-02 10:34:00,32.5,17.3,30.31,NNW,328,4.0,6.3,53,0.00,,,0.00,VWS V13.01,2013-03-02 16:34:00,
2013-03-02 10:39:00,33.1,17.8,30.31,North,360,3.6,5.8,53,0.00,,,0.00,VWS V13.01,2013-03-02 16:39:00,
2013-03-02 10:44:00,33.4,18.1,30.31,WSW,238,5.4,5.4,53,0.00,,,0.00,VWS V13.01,2013-03-02 16:44:00,
2013-03-02 10:49:00,32.5,17.3,30.31,NW,320,4.9,8.3,53,0.00,,,0.00,VWS V13.01,2013-03-02 16:49:00,
2013-03-02 10:54:00,32.5,17.3,30.31,WNW,302,8.3,8.3,53,0.00,,,0.00,VWS V13.01,2013-03-02 16:54:00,
2013-03-02 10:59:00,32.5,17.7,30.31,WNW,292,8.3,8.3,54,0.00,,,0.00,VWS V13.01,2013-03-02 16:59:00,
2013-03-02 11:04:00,32.5,17.3,30.31,WNW,292,11.0,11.0,53,0.00,,,0.00,VWS V13.01,2013-03-02 17:04:00,
2013-03-02 11:09:00,33.1,17.8,30.31,WNW,293,8.7,9.2,53,0.00,,,0.00,VWS V13.01,2013-03-02 17:09:00,
2013-03-02 11:14:00,33.6,18.3,30.31,West,262,5.4,9.6,53,0.00,,,0.00,VWS V13.01,2013-03-02 17:14:00,
2013-03-02 11:19:00,34.1,18.8,30.31,WSW,256,4.0,5.4,53,0.00,,,0.00,VWS V13.01,2013-03-02 17:19:00,
2013-03-02 11:24:00,35.0,19.2,30.31,WNW,288,8.3,8.3,52,0.00,,,0.00,VWS V13.01,2013-03-02 17:24:00,
2013-03-02 11:29:00,34.9,19.0,30.34,NW,314,8.1,10.1,52,0.00,,,0.00,VWS V13.01,2013-03-02 17:29:00,
2013-03-02 11:34:00,35.4,19.5,30.34,North,351,4.0,6.3,52,0.00,,,0.00,VWS V13.01,2013-03-02 17:34:00,
2013-03-02 11:39:00,35.6,19.2,30.34,South,179,5.8,5.8,51,0.00,,,0.00,VWS V13.01,2013-03-02 17:39:00,
2013-03-02 11:44:00,35.2,19.4,30.34,WNW,291,8.7,8.7,52,0.00,,,0.00,VWS V13.01,2013-03-02 17:44:00,
2013-03-02 11:49:00,34.5,18.7,30.34,WNW,293,3.6,5.8,52,0.00,,,0.00,VWS V13.01,2013-03-02 17:49:00,
2013-03-02 11:54:00,34.5,18.7,30.34,WSW,240,5.4,7.6,52,0.00,,,0.00,VWS V13.01,2013-03-02 17:54:00,
2013-03-02 11:59:00,34.5,18.7,30.31,West,263,8.3,10.5,52,0.00,,,0.00,VWS V13.01,2013-03-02 17:59:00,
2013-03-02 12:04:00,34.7,18.9,30.31,WSW,237,5.8,5.8,52,0.00,,,0.00,VWS V13.01,2013-03-02 18:04:00,
2013-03-02 12:09:00,35.0,19.2,30.31,SW,232,5.4,5.4,52,0.00,,,0.00,VWS V13.01,2013-03-02 18:09:00,
2013-03-02 12:14:00,35.8,19.4,30.31,NW,310,5.8,5.8,51,0.00,,,0.00,VWS V13.01,2013-03-02 18:14:00,
2013-03-02 12:19:00,36.1,19.8,30.31,SW,232,5.4,6.3,51,0.00,,,0.00,VWS V13.01,2013-03-02 18:19:00,
2013-03-02 12:24:00,35.9,19.6,30.31,West,279,6.3,8.1,51,0.00,,,0.00,VWS V13.01,2013-03-02 18:24:00,
2013-03-02 12:29:00,36.1,19.8,30.31,WSW,253,6.7,6.7,51,0.00,,,0.00,VWS V13.01,2013-03-02 18:29:00,
2013-03-02 12:34:00,37.0,20.6,30.31,West,274,5.4,5.4,51,0.00,,,0.00,VWS V13.01,2013-03-02 18:34:00,
2013-03-02 12:39:00,38.3,21.3,30.31,North,7,3.1,4.0,50,0.00,,,0.00,VWS V13.01,2013-03-02 18:39:00,
2013-03-02 12:44:00,39.4,21.8,30.31,SSE,160,9.2,9.2,49,0.00,,,0.00,VWS V13.01,2013-03-02 18:44:00,
2013-03-02 12:49:00,38.6,21.6,30.31,WSW,245,6.3,6.3,50,0.00,,,0.00,VWS V13.01,2013-03-02 18:49:00,
2013-03-02 12:54:00,37.7,20.8,30.31,West,263,6.3,6.3,50,0.00,,,0.00,VWS V13.01,2013-03-02 18:54:00,
2013-03-02 12:59:00,37.0,20.1,30.31,West,279,5.8,6.7,50,0.00,,,0.00,VWS V13.01,2013-03-02 18:59:00,
2013-03-02 13:04:00,37.2,20.3,30.31,WSW,252,3.1,3.1,50,0.00,,,0.00,VWS V13.01,2013-03-02 19:04:00,
2013-03-02 13:09:00,38.6,21.6,30.31,WNW,292,10.1,10.1,50,0.00,,,0.00,VWS V13.01,2013-03-02 19:09:00,
2013-03-02 13:14:00,37.9,21.0,30.28,West,274,6.7,8.3,50,0.00,,,0.00,VWS V13.01,2013-03-02 19:14:00,
2013-03-02 13:19:00,37.9,21.0,30.28,NW,306,10.1,11.0,50,0.00,,,0.00,VWS V13.01,2013-03-02 19:19:00,
2013-03-02 13:24:00,38.3,21.3,30.28,NW,315,5.4,5.4,50,0.00,,,0.00,VWS V13.01,2013-03-02 19:24:00,
2013-03-02 13:29:00,39.0,21.5,30.28,NNW,345,5.4,5.4,49,0.00,,,0.00,VWS V13.01,2013-03-02 19:29:00,
2013-03-02 13:34:00,38.8,21.3,30.28,NW,315,5.4,5.4,49,0.00,,,0.00,VWS V13.01,2013-03-02 19:34:00,
2013-03-02 13:39:00,38.5,21.0,30.28,SW,224,4.0,4.0,49,0.00,,,0.00,VWS V13.01,2013-03-02 19:39:00,
2013-03-02 13:44:00,39.2,21.6,30.28,WNW,295,5.4,6.3,49,0.00,,,0.00,VWS V13.01,2013-03-02 19:44:00,
2013-03-02 13:49:00,39.5,22.0,30.28,WSW,247,2.7,2.7,49,0.00,,,0.00,VWS V13.01,2013-03-02 19:49:00,
2013-03-02 13:54:00,39.0,21.5,30.28,West,274,3.1,3.1,49,0.00,,,0.00,VWS V13.01,2013-03-02 19:54:00,
2013-03-02 13:59:00,39.4,21.8,30.25,WSW,250,5.8,5.8,49,0.00,,,0.00,VWS V13.01,2013-03-02 19:59:00,
2013-03-02 14:04:00,39.5,22.0,30.25,WSW,254,5.4,5.4,49,0.00,,,0.00,VWS V13.01,2013-03-02 20:04:00,
2013-03-02 14:09:00,40.1,22.5,30.25,North,356,5.4,5.4,49,0.00,,,0.00,VWS V13.01,2013-03-02 20:09:00,
2013-03-02 14:14:00,40.6,22.5,30.25,WNW,299,6.3,6.3,48,0.00,,,0.00,VWS V13.01,2013-03-02 20:14:00,
2013-03-02 14:19:00,40.8,22.6,30.25,West,265,6.3,8.7,48,0.00,,,0.00,VWS V13.01,2013-03-02 20:19:00,
2013-03-02 14:24:00,40.8,22.6,30.25,West,266,10.1,10.1,48,0.00,,,0.00,VWS V13.01,2013-03-02 20:24:00,
2013-03-02 14:29:00,41.5,23.3,30.25,NNW,329,8.1,8.1,48,0.00,,,0.00,VWS V13.01,2013-03-02 20:29:00,
2013-03-02 14:34:00,41.7,23.5,30.25,NW,314,6.3,6.3,48,0.00,,,0.00,VWS V13.01,2013-03-02 20:34:00,
2013-03-02 14:39:00,41.7,21.9,30.25,NW,313,5.8,5.8,45,0.00,,,0.00,VWS V13.01,2013-03-02 20:39:00,
2013-03-02 14:44:00,41.7,23.5,30.25,West,264,6.3,6.3,48,0.00,,,0.00,VWS V13.01,2013-03-02 20:44:00,
2013-03-02 14:49:00,41.0,21.3,30.25,WNW,303,8.7,8.7,45,0.00,,,0.00,VWS V13.01,2013-03-02 20:49:00,
2013-03-02 14:54:00,41.7,23.5,30.25,WSW,253,8.1,8.3,48,0.00,,,0.00,VWS V13.01,2013-03-02 20:54:00,
2013-03-02 14:59:00,42.4,22.6,30.22,WSW,255,4.0,4.0,45,0.00,,,0.00,VWS V13.01,2013-03-02 20:59:00,
2013-03-02 15:04:00,42.2,22.4,30.22,NW,315,6.3,6.3,45,0.00,,,0.00,VWS V13.01,2013-03-02 21:04:00,
2013-03-02 15:09:00,42.4,22.6,30.22,NW,319,8.3,8.7,45,0.00,,,0.00,VWS V13.01,2013-03-02 21:09:00,
2013-03-02 15:13:00,42.2,24.0,30.22,NW,311,8.3,11.0,48,0.00,,,0.00,VWS V13.01,2013-03-02 21:13:00,
2013-03-02 15:18:00,41.7,21.9,30.22,NW,324,6.3,7.6,45,0.00,,,0.00,VWS V13.01,2013-03-02 21:18:00,
2013-03-02 15:23:00,41.9,22.1,30.22,NNW,331,5.8,8.7,45,0.00,,,0.00,VWS V13.01,2013-03-02 21:23:00,
2013-03-02 15:28:00,43.0,23.1,30.22,WSW,256,4.0,8.7,45,0.00,,,0.00,VWS V13.01,2013-03-02 21:28:00,
2013-03-02 15:33:00,43.3,23.4,30.22,WNW,288,5.4,6.7,45,0.00,,,0.00,VWS V13.01,2013-03-02 21:33:00,
2013-03-02 15:38:00,42.8,22.9,30.22,NW,316,4.9,4.9,45,0.00,,,0.00,VWS V13.01,2013-03-02 21:38:00,
2013-03-02 15:43:00,43.1,21.6,30.22,NW,304,5.4,5.8,42,0.00,,,0.00,VWS V13.01,2013-03-02 21:43:00,
2013-03-02 15:48:00,42.6,21.1,30.22,NW,310,10.1,10.1,42,0.00,,,0.00,VWS V13.01,2013-03-02 21:48:00,
2013-03-02 15:53:00,42.6,21.1,30.22,WNW,290,6.3,10.1,42,0.00,,,0.00,VWS V13.01,2013-03-02 21:53:00,
2013-03-02 15:58:00,42.8,21.3,30.22,West,274,4.9,5.8,42,0.00,,,0.00,VWS V13.01,2013-03-02 21:58:00,
2013-03-02 16:03:00,43.1,23.3,30.22,WSW,248,5.8,10.1,45,0.00,,,0.00,VWS V13.01,2013-03-02 22:03:00,
2013-03-02 16:08:00,43.3,21.8,30.22,West,262,4.9,5.4,42,0.00,,,0.00,VWS V13.01,2013-03-02 22:08:00,
2013-03-02 16:13:00,42.8,21.3,30.22,NW,304,10.5,10.5,42,0.00,,,0.00,VWS V13.01,2013-03-02 22:13:00,
2013-03-02 16:18:00,42.8,21.3,30.22,NW,312,8.1,8.1,42,0.00,,,0.00,VWS V13.01,2013-03-02 22:18:00,
2013-03-02 16:23:00,42.2,21.4,30.22,NW,307,3.6,7.6,43,0.00,,,0.00,VWS V13.01,2013-03-02 22:23:00,
2013-03-02 16:28:00,42.6,21.1,30.22,NW,314,6.3,6.3,42,0.00,,,0.00,VWS V13.01,2013-03-02 22:28:00,
2013-03-02 16:33:00,42.8,21.3,30.22,NW,320,6.7,6.7,42,0.00,,,0.00,VWS V13.01,2013-03-02 22:33:00,
2013-03-02 16:38:00,42.4,21.5,30.22,West,279,5.8,12.8,43,0.00,,,0.00,VWS V13.01,2013-03-02 22:38:00,
2013-03-02 16:43:00,42.8,21.3,30.22,NW,312,7.6,7.6,42,0.00,,,0.00,VWS V13.01,2013-03-02 22:43:00,
2013-03-02 16:48:00,42.4,21.5,30.22,WNW,301,7.6,10.1,43,0.00,,,0.00,VWS V13.01,2013-03-02 22:48:00,
2013-03-02 16:53:00,42.4,21.5,30.22,NW,319,5.4,7.6,43,0.00,,,0.00,VWS V13.01,2013-03-02 22:53:00,
2013-03-02 16:58:00,42.2,21.4,30.22,West,281,3.6,4.0,43,0.00,,,0.00,VWS V13.01,2013-03-02 22:58:00,
2013-03-02 17:03:00,42.6,21.1,30.22,NW,322,5.4,5.4,42,0.00,,,0.00,VWS V13.01,2013-03-02 23:03:00,
2013-03-02 17:08:00,42.4,21.5,30.22,WSW,246,4.9,5.4,43,0.00,,,0.00,VWS V13.01,2013-03-02 23:08:00,
2013-03-02 17:13:00,42.2,21.4,30.25,NNW,343,3.1,4.5,43,0.00,,,0.00,VWS V13.01,2013-03-02 23:13:00,
2013-03-02 17:18:00,42.1,21.2,30.25,NW,319,5.8,7.2,43,0.00,,,0.00,VWS V13.01,2013-03-02 23:18:00,
2013-03-02 17:23:00,41.9,21.0,30.25,NW,320,5.8,7.2,43,0.00,,,0.00,VWS V13.01,2013-03-02 23:23:00,
2013-03-02 17:28:00,41.9,21.0,30.25,WSW,246,5.4,6.3,43,0.00,,,0.00,VWS V13.01,2013-03-02 23:28:00,
2013-03-02 17:33:00,41.7,20.9,30.25,WNW,301,4.5,6.3,43,0.00,,,0.00,VWS V13.01,2013-03-02 23:33:00,
2013-03-02 17:38:00,41.9,21.0,30.25,NW,308,3.6,4.0,43,0.00,,,0.00,VWS V13.01,2013-03-02 23:38:00,
2013-03-02 17:43:00,41.5,20.7,30.25,NW,322,4.9,5.4,43,0.00,,,0.00,VWS V13.01,2013-03-02 23:43:00,
2013-03-02 17:48:00,41.2,20.4,30.25,NNW,329,4.0,4.5,43,0.00,,,0.00,VWS V13.01,2013-03-02 23:48:00,
2013-03-02 17:53:00,40.8,20.0,30.25,WNW,294,3.6,4.9,43,0.00,,,0.00,VWS V13.01,2013-03-02 23:53:00,
2013-03-02 17:58:00,40.8,20.0,30.25,WNW,282,2.7,2.7,43,0.00,,,0.00,VWS V13.01,2013-03-02 23:58:00,
2013-03-02 18:03:00,40.4,19.7,30.25,NW,309,4.0,5.4,43,0.00,,,0.00,VWS V13.01,2013-03-03 00:03:00,
2013-03-02 18:08:00,40.3,19.6,30.25,WNW,300,3.1,4.0,43,0.00,,,0.00,VWS V13.01,2013-03-03 00:08:00,
2013-03-02 18:13:00,39.9,19.2,30.28,WNW,290,2.7,3.1,43,0.00,,,0.00,VWS V13.01,2013-03-03 00:13:00,
2013-03-02 18:18:00,39.5,18.9,30.28,West,271,4.0,4.0,43,0.00,,,0.00,VWS V13.01,2013-03-03 00:18:00,
2013-03-02 18:23:00,39.2,20.2,30.28,WNW,284,2.2,2.7,46,0.00,,,0.00,VWS V13.01,2013-03-03 00:23:00,
2013-03-02 18:28:00,38.8,19.8,30.25,WNW,289,2.2,2.7,46,0.00,,,0.00,VWS V13.01,2013-03-03 00:28:00,
2013-03-02 18:33:00,38.6,18.1,30.25,WNW,289,2.7,2.7,43,0.00,,,0.00,VWS V13.01,2013-03-03 00:33:00,
2013-03-02 18:38:00,38.5,19.5,30.25,NW,322,2.7,3.1,46,0.00,,,0.00,VWS V13.01,2013-03-03 00:38:00,
2013-03-02 18:43:00,37.9,19.0,30.25,WNW,298,2.7,3.6,46,0.00,,,0.00,VWS V13.01,2013-03-03 00:43:00,
2013-03-02 18:48:00,37.6,18.7,30.25,NW,305,2.7,2.7,46,0.00,,,0.00,VWS V13.01,2013-03-03 00:48:00,
2013-03-02 18:53:00,37.0,19.6,30.25,NW,311,2.7,2.7,49,0.00,,,0.00,VWS V13.01,2013-03-03 00:53:00,
2013-03-02 18:58:00,36.3,19.0,30.25,NNW,332,2.2,2.7,49,0.00,,,0.00,VWS V13.01,2013-03-03 00:58:00,
2013-03-02 19:03:00,35.6,18.3,30.25,NNW,337,2.2,2.2,49,0.00,,,0.00,VWS V13.01,2013-03-03 01:03:00,
2013-03-02 19:08:00,35.0,18.3,30.25,NNW,328,2.2,2.7,50,0.00,,,0.00,VWS V13.01,2013-03-03 01:08:00,
2013-03-02 19:13:00,34.5,18.2,30.25,NNW,339,2.2,2.7,51,0.00,,,0.00,VWS V13.01,2013-03-03 01:13:00,
2013-03-02 19:18:00,34.1,18.4,30.25,NNW,339,0.0,0.0,52,0.00,,,0.00,VWS V13.01,2013-03-03 01:18:00,
2013-03-02 19:23:00,33.6,17.9,30.25,NNW,339,2.2,2.2,52,0.00,,,0.00,VWS V13.01,2013-03-03 01:23:00,
2013-03-02 19:28:00,33.2,18.8,30.25,NNW,340,0.0,0.0,55,0.00,,,0.00,VWS V13.01,2013-03-03 01:28:00,
2013-03-02 19:33:00,32.5,19.4,30.25,NNW,340,2.2,2.7,58,0.00,,,0.00,VWS V13.01,2013-03-03 01:33:00,
2013-03-02 19:38:00,32.0,19.7,30.25,NNW,344,2.7,2.7,60,0.00,,,0.00,VWS V13.01,2013-03-03 01:38:00,
2013-03-02 19:43:00,31.4,19.2,30.25,NNW,345,0.0,2.2,60,0.00,,,0.00,VWS V13.01,2013-03-03 01:43:00,
2013-03-02 19:48:00,31.1,18.8,30.25,NNW,346,2.2,2.7,60,0.00,,,0.00,VWS V13.01,2013-03-03 01:48:00,
2013-03-02 19:53:00,30.9,19.0,30.25,NNW,346,0.0,0.0,61,0.00,,,0.00,VWS V13.01,2013-03-03 01:53:00,
2013-03-02 19:58:00,30.7,18.9,30.25,NNW,345,0.0,0.0,61,0.00,,,0.00,VWS V13.01,2013-03-03 01:58:00,
2013-03-02 20:03:00,30.5,19.1,30.25,North,6,0.0,0.0,62,0.00,,,0.00,VWS V13.01,2013-03-03 02:03:00,
2013-03-02 20:08:00,30.2,18.8,30.25,North,8,3.1,3.1,62,0.00,,,0.00,VWS V13.01,2013-03-03 02:08:00,
2013-03-02 20:13:00,29.6,18.6,30.25,NNE,16,2.7,3.1,63,0.00,,,0.00,VWS V13.01,2013-03-03 02:13:00,
2013-03-02 20:18:00,29.3,18.3,30.25,NNE,16,0.0,0.0,63,0.00,,,0.00,VWS V13.01,2013-03-03 02:18:00,
2013-03-02 20:23:00,29.1,18.5,30.25,NNE,16,2.2,2.2,64,0.00,,,0.00,VWS V13.01,2013-03-03 02:23:00,
2013-03-02 20:28:00,28.9,18.6,30.25,NNE,16,0.0,0.0,65,0.00,,,0.00,VWS V13.01,2013-03-03 02:28:00,
2013-03-02 20:33:00,28.6,17.6,30.25,NNE,16,0.0,0.0,63,0.00,,,0.00,VWS V13.01,2013-03-03 02:33:00,
2013-03-02 20:38:00,28.6,17.9,30.25,NNE,16,0.0,0.0,64,0.00,,,0.00,VWS V13.01,2013-03-03 02:38:00,
2013-03-02 20:43:00,28.6,17.9,30.25,NNE,16,0.0,0.0,64,0.00,,,0.00,VWS V13.01,2013-03-03 02:43:00,
2013-03-02 20:48:00,28.4,17.8,30.25,NNE,16,0.0,0.0,64,0.00,,,0.00,VWS V13.01,2013-03-03 02:48:00,
2013-03-02 20:53:00,28.4,18.5,30.25,NNE,16,0.0,0.0,66,0.00,,,0.00,VWS V13.01,2013-03-03 02:53:00,
2013-03-02 20:58:00,28.0,18.1,30.25,NNE,27,0.0,0.0,66,0.00,,,0.00,VWS V13.01,2013-03-03 02:58:00,
2013-03-02 21:03:00,27.8,17.6,30.25,NNE,27,2.7,2.7,65,0.00,,,0.00,VWS V13.01,2013-03-03 03:03:00,
2013-03-02 21:08:00,27.8,17.6,30.25,NNE,27,3.1,3.1,65,0.00,,,0.00,VWS V13.01,2013-03-03 03:08:00,
2013-03-02 21:13:00,27.7,17.8,30.25,NNE,27,2.2,2.2,66,0.00,,,0.00,VWS V13.01,2013-03-03 03:13:00,
2013-03-02 21:18:00,27.3,17.1,30.25,NNE,22,0.0,0.0,65,0.00,,,0.00,VWS V13.01,2013-03-03 03:18:00,
2013-03-02 21:23:00,27.3,17.1,30.25,NE,42,2.7,2.7,65,0.00,,,0.00,VWS V13.01,2013-03-03 03:23:00,
2013-03-02 21:28:00,26.9,16.8,30.25,NE,42,0.0,0.0,65,0.00,,,0.00,VWS V13.01,2013-03-03 03:28:00,
2013-03-02 21:33:00,26.6,16.4,30.25,ENE,60,0.0,0.0,65,0.00,,,0.00,VWS V13.01,2013-03-03 03:33:00,
2013-03-02 21:38:00,26.4,16.2,30.25,ENE,66,0.0,0.0,65,0.00,,,0.00,VWS V13.01,2013-03-03 03:38:00,
2013-03-02 21:43:00,26.0,16.2,30.25,ENE,66,0.0,0.0,66,0.00,,,0.00,VWS V13.01,2013-03-03 03:43:00,
2013-03-02 21:48:00,25.9,16.1,30.25,ENE,66,0.0,0.0,66,0.00,,,0.00,VWS V13.01,2013-03-03 03:48:00,
2013-03-02 21:53:00,26.0,16.2,30.25,ENE,66,0.0,0.0,66,0.00,,,0.00,VWS V13.01,2013-03-03 03:53:00,
2013-03-02 21:58:00,26.4,16.9,30.25,ENE,66,0.0,0.0,67,0.00,,,0.00,VWS V13.01,2013-03-03 03:58:00,
2013-03-02 22:03:00,26.6,17.1,30.25,ENE,66,0.0,0.0,67,0.00,,,0.00,VWS V13.01,2013-03-03 04:03:00,
2013-03-02 22:08:00,26.8,16.9,30.25,ENE,66,0.0,0.0,66,0.00,,,0.00,VWS V13.01,2013-03-03 04:08:00,
2013-03-02 22:13:00,26.8,16.9,30.25,ENE,66,0.0,0.0,66,0.00,,,0.00,VWS V13.01,2013-03-03 04:13:00,
2013-03-02 22:18:00,26.8,17.3,30.25,ENE,66,0.0,0.0,67,0.00,,,0.00,VWS V13.01,2013-03-03 04:18:00,
2013-03-02 22:23:00,26.0,17.6,30.25,NE,48,0.0,0.0,70,0.00,,,0.00,VWS V13.01,2013-03-03 04:23:00,
2013-03-02 22:28:00,25.5,17.4,30.25,NE,48,0.0,0.0,71,0.00,,,0.00,VWS V13.01,2013-03-03 04:28:00,
2013-03-02 22:33:00,25.3,17.2,30.25,NE,48,0.0,0.0,71,0.00,,,0.00,VWS V13.01,2013-03-03 04:33:00,
2013-03-02 22:38:00,25.0,17.2,30.25,NE,48,0.0,0.0,72,0.00,,,0.00,VWS V13.01,2013-03-03 04:38:00,
2013-03-02 22:43:00,24.8,17.4,30.25,NE,48,0.0,0.0,73,0.00,,,0.00,VWS V13.01,2013-03-03 04:43:00,
2013-03-02 22:48:00,24.8,18.0,30.25,NNE,16,3.6,3.6,75,0.00,,,0.00,VWS V13.01,2013-03-03 04:48:00,
2013-03-02 22:53:00,24.6,17.8,30.25,NNE,30,3.6,3.6,75,0.00,,,0.00,VWS V13.01,2013-03-03 04:53:00,
2013-03-02 22:58:00,24.4,17.3,30.25,NE,38,3.6,3.6,74,0.00,,,0.00,VWS V13.01,2013-03-03 04:58:00,
2013-03-02 23:00:00,24.4,17.0,30.25,NE,38,2.7,3.1,73,0.00,,,0.00,VWS V13.01,2013-03-03 05:00:00,
2013-03-02 23:05:00,24.4,16.7,30.25,NE,38,0.0,0.0,72,0.00,,,0.00,VWS V13.01,2013-03-03 05:05:00,
2013-03-02 23:10:00,24.6,17.2,30.25,NE,38,0.0,0.0,73,0.00,,,0.00,VWS V13.01,2013-03-03 05:10:00,
2013-03-02 23:15:00,24.2,16.5,30.22,NE,38,0.0,0.0,72,0.00,,,0.00,VWS V13.01,2013-03-03 05:15:00,
2013-03-02 23:20:00,23.9,17.1,30.22,NE,38,0.0,0.0,75,0.00,,,0.00,VWS V13.01,2013-03-03 05:20:00,
2013-03-02 23:25:00,23.5,17.1,30.22,NE,38,0.0,0.0,76,0.00,,,0.00,VWS V13.01,2013-03-03 05:25:00,
2013-03-02 23:30:00,23.3,16.6,30.22,NE,38,0.0,0.0,75,0.00,,,0.00,VWS V13.01,2013-03-03 05:30:00,
2013-03-02 23:35:00,23.3,16.6,30.22,NE,38,0.0,0.0,75,0.00,,,0.00,VWS V13.01,2013-03-03 05:35:00,
2013-03-02 23:40:00,23.3,16.6,30.22,NE,38,0.0,0.0,75,0.00,,,0.00,VWS V13.01,2013-03-03 05:40:00,
2013-03-02 23:45:00,23.3,16.6,30.22,NE,38,0.0,0.0,75,0.00,,,0.00,VWS V13.01,2013-03-03 05:45:00,
2013-03-02 23:50:00,23.5,16.5,30.22,NE,38,0.0,0.0,74,0.00,,,0.00,VWS V13.01,2013-03-03 05:50:00,
2013-03-02 23:55:00,23.9,16.8,30.22,NE,38,0.0,0.0,74,0.00,,,0.00,VWS V13.01,2013-03-03 05:55:00,